sensor_id;sensor_type;location;lat;lon;timestamp;P1;durP1;ratioP1;P2;durP2;ratioP2
75038;SDS011;63609;49.992;14.512;2024-03-06T01:03:33;50.75;;;25.70;;
75038;SDS011;63609;49.992;14.512;2024-03-06T01:05:59;46.35;;;21.83;;
75038;SDS011;63609;49.992;14.512;2024-03-06T01:08:27;49.28;;;21.60;;
75038;SDS011;63609;49.992;14.512;2024-03-06T01:10:54;38.72;;;19.88;;
75038;SDS011;63609;49.992;14.512;2024-03-06T01:13:21;48.30;;;19.08;;
75038;SDS011;63609;49.992;14.512;2024-03-06T01:15:48;46.20;;;21.50;;
75038;SDS011;63609;49.992;14.512;2024-03-06T01:20:41;49.75;;;19.85;;
75038;SDS011;63609;49.992;14.512;2024-03-06T01:23:08;47.08;;;21.75;;
75038;SDS011;63609;49.992;14.512;2024-03-06T01:25:35;48.45;;;19.35;;
75038;SDS011;63609;49.992;14.512;2024-03-06T01:28:03;48.72;;;21.80;;
75038;SDS011;63609;49.992;14.512;2024-03-06T01:30:30;51.60;;;23.30;;
75038;SDS011;63609;49.992;14.512;2024-03-06T01:32:58;49.28;;;19.65;;
75038;SDS011;63609;49.992;14.512;2024-03-06T01:35:25;47.00;;;22.25;;
75038;SDS011;63609;49.992;14.512;2024-03-06T01:37:52;44.38;;;19.38;;
75038;SDS011;63609;49.992;14.512;2024-03-06T01:40:18;52.55;;;22.60;;
75038;SDS011;63609;49.992;14.512;2024-03-06T01:42:46;49.45;;;21.85;;
75038;SDS011;63609;49.992;14.512;2024-03-06T01:45:14;50.55;;;22.10;;
75038;SDS011;63609;49.992;14.512;2024-03-06T01:47:42;50.38;;;22.00;;
75038;SDS011;63609;49.992;14.512;2024-03-06T01:50:09;45.05;;;21.35;;
75038;SDS011;63609;49.992;14.512;2024-03-06T01:52:36;49.53;;;22.00;;
75038;SDS011;63609;49.992;14.512;2024-03-06T01:55:07;49.35;;;22.00;;
75038;SDS011;63609;49.992;14.512;2024-03-06T01:57:35;49.90;;;21.33;;
75038;SDS011;63609;49.992;14.512;2024-03-06T02:00:04;48.47;;;22.70;;
75038;SDS011;63609;49.992;14.512;2024-03-06T02:02:41;50.63;;;22.10;;
75038;SDS011;63609;49.992;14.512;2024-03-06T02:05:09;48.30;;;23.05;;
75038;SDS011;63609;49.992;14.512;2024-03-06T02:07:37;49.40;;;22.90;;
75038;SDS011;63609;49.992;14.512;2024-03-06T02:10:06;53.47;;;21.35;;
75038;SDS011;63609;49.992;14.512;2024-03-06T02:12:36;45.65;;;21.98;;
75038;SDS011;63609;49.992;14.512;2024-03-06T02:15:04;46.83;;;21.63;;
75038;SDS011;63609;49.992;14.512;2024-03-06T02:17:31;46.42;;;22.13;;
75038;SDS011;63609;49.992;14.512;2024-03-06T02:19:58;48.53;;;22.52;;
75038;SDS011;63609;49.992;14.512;2024-03-06T02:24:51;43.47;;;21.02;;
75038;SDS011;63609;49.992;14.512;2024-03-06T02:27:18;50.50;;;21.17;;
75038;SDS011;63609;49.992;14.512;2024-03-06T02:32:12;47.83;;;19.98;;
75038;SDS011;63609;49.992;14.512;2024-03-06T02:34:40;46.45;;;21.45;;
75038;SDS011;63609;49.992;14.512;2024-03-06T02:37:07;48.85;;;23.13;;
75038;SDS011;63609;49.992;14.512;2024-03-06T02:42:01;47.05;;;21.15;;
75038;SDS011;63609;49.992;14.512;2024-03-06T02:44:27;49.97;;;21.77;;
75038;SDS011;63609;49.992;14.512;2024-03-06T02:46:54;50.95;;;22.73;;
75038;SDS011;63609;49.992;14.512;2024-03-06T02:49:21;57.85;;;23.75;;
75038;SDS011;63609;49.992;14.512;2024-03-06T02:51:48;53.85;;;23.23;;
75038;SDS011;63609;49.992;14.512;2024-03-06T02:54:15;49.47;;;23.70;;
75038;SDS011;63609;49.992;14.512;2024-03-06T02:56:42;50.00;;;22.58;;
75038;SDS011;63609;49.992;14.512;2024-03-06T02:59:09;49.60;;;21.95;;
75038;SDS011;63609;49.992;14.512;2024-03-06T03:01:36;47.50;;;22.40;;
75038;SDS011;63609;49.992;14.512;2024-03-06T03:04:03;48.90;;;22.48;;
75038;SDS011;63609;49.992;14.512;2024-03-06T03:06:30;52.30;;;23.95;;
75038;SDS011;63609;49.992;14.512;2024-03-06T03:08:57;55.20;;;23.40;;
75038;SDS011;63609;49.992;14.512;2024-03-06T03:11:24;50.22;;;22.63;;
75038;SDS011;63609;49.992;14.512;2024-03-06T03:13:51;51.50;;;23.52;;
75038;SDS011;63609;49.992;14.512;2024-03-06T03:16:18;55.05;;;23.70;;
75038;SDS011;63609;49.992;14.512;2024-03-06T03:18:47;52.53;;;23.98;;
75038;SDS011;63609;49.992;14.512;2024-03-06T03:21:15;52.92;;;23.08;;
75038;SDS011;63609;49.992;14.512;2024-03-06T03:23:42;46.60;;;20.98;;
75038;SDS011;63609;49.992;14.512;2024-03-06T03:26:09;45.65;;;22.67;;
75038;SDS011;63609;49.992;14.512;2024-03-06T03:28:38;49.50;;;23.23;;
75038;SDS011;63609;49.992;14.512;2024-03-06T03:31:07;49.47;;;21.35;;
75038;SDS011;63609;49.992;14.512;2024-03-06T03:33:36;54.63;;;23.40;;
75038;SDS011;63609;49.992;14.512;2024-03-06T03:36:06;51.08;;;22.92;;
75038;SDS011;63609;49.992;14.512;2024-03-06T03:38:34;53.08;;;23.63;;
75038;SDS011;63609;49.992;14.512;2024-03-06T03:41:08;51.47;;;23.45;;
75038;SDS011;63609;49.992;14.512;2024-03-06T03:43:36;49.65;;;23.65;;
75038;SDS011;63609;49.992;14.512;2024-03-06T03:46:03;50.50;;;23.63;;
75038;SDS011;63609;49.992;14.512;2024-03-06T03:48:31;48.08;;;22.17;;
75038;SDS011;63609;49.992;14.512;2024-03-06T03:50:58;49.50;;;23.23;;
75038;SDS011;63609;49.992;14.512;2024-03-06T03:53:25;49.80;;;22.90;;
75038;SDS011;63609;49.992;14.512;2024-03-06T03:55:51;54.08;;;23.10;;
75038;SDS011;63609;49.992;14.512;2024-03-06T03:58:18;55.97;;;23.83;;
75038;SDS011;63609;49.992;14.512;2024-03-06T04:00:46;51.47;;;23.08;;
75038;SDS011;63609;49.992;14.512;2024-03-06T04:03:16;55.30;;;22.40;;
75038;SDS011;63609;49.992;14.512;2024-03-06T04:05:44;51.33;;;22.88;;
75038;SDS011;63609;49.992;14.512;2024-03-06T04:08:10;51.00;;;23.90;;
75038;SDS011;63609;49.992;14.512;2024-03-06T04:10:37;53.38;;;23.35;;
75038;SDS011;63609;49.992;14.512;2024-03-06T04:13:07;52.35;;;22.95;;
75038;SDS011;63609;49.992;14.512;2024-03-06T04:15:34;52.88;;;23.08;;
75038;SDS011;63609;49.992;14.512;2024-03-06T04:20:28;51.00;;;22.08;;
75038;SDS011;63609;49.992;14.512;2024-03-06T04:22:57;54.63;;;22.50;;
75038;SDS011;63609;49.992;14.512;2024-03-06T04:25:24;50.95;;;22.55;;
75038;SDS011;63609;49.992;14.512;2024-03-06T04:27:51;53.47;;;21.50;;
75038;SDS011;63609;49.992;14.512;2024-03-06T04:30:18;49.88;;;23.48;;
75038;SDS011;63609;49.992;14.512;2024-03-06T04:32:46;50.92;;;22.17;;
75038;SDS011;63609;49.992;14.512;2024-03-06T04:35:15;45.72;;;21.40;;
75038;SDS011;63609;49.992;14.512;2024-03-06T04:37:42;48.20;;;21.02;;
75038;SDS011;63609;49.992;14.512;2024-03-06T04:40:11;50.03;;;23.30;;
75038;SDS011;63609;49.992;14.512;2024-03-06T04:42:41;51.33;;;22.65;;
75038;SDS011;63609;49.992;14.512;2024-03-06T04:45:14;49.78;;;22.77;;
75038;SDS011;63609;49.992;14.512;2024-03-06T04:47:42;48.75;;;22.85;;
75038;SDS011;63609;49.992;14.512;2024-03-06T04:50:10;53.22;;;23.60;;
75038;SDS011;63609;49.992;14.512;2024-03-06T04:52:38;56.03;;;23.38;;
75038;SDS011;63609;49.992;14.512;2024-03-06T04:55:05;54.20;;;24.02;;
75038;SDS011;63609;49.992;14.512;2024-03-06T04:57:34;51.25;;;22.52;;
75038;SDS011;63609;49.992;14.512;2024-03-06T05:00:01;53.97;;;24.50;;
75038;SDS011;63609;49.992;14.512;2024-03-06T05:02:32;57.20;;;24.05;;
75038;SDS011;63609;49.992;14.512;2024-03-06T05:05:18;51.58;;;23.85;;
75038;SDS011;63609;49.992;14.512;2024-03-06T05:08:03;54.47;;;23.98;;
75038;SDS011;63609;49.992;14.512;2024-03-06T05:10:47;48.00;;;21.80;;
75038;SDS011;63609;49.992;14.512;2024-03-06T05:13:33;53.97;;;24.48;;
75038;SDS011;63609;49.992;14.512;2024-03-06T05:16:18;57.25;;;24.40;;
75038;SDS011;63609;49.992;14.512;2024-03-06T05:19:02;54.10;;;23.95;;
75038;SDS011;63609;49.992;14.512;2024-03-06T05:21:47;54.13;;;24.02;;
75038;SDS011;63609;49.992;14.512;2024-03-06T05:24:31;50.00;;;23.45;;
75038;SDS011;63609;49.992;14.512;2024-03-06T05:27:15;52.78;;;23.95;;
75038;SDS011;63609;49.992;14.512;2024-03-06T05:30:03;56.15;;;23.38;;
75038;SDS011;63609;49.992;14.512;2024-03-06T05:32:49;56.80;;;24.35;;
75038;SDS011;63609;49.992;14.512;2024-03-06T05:35:34;51.90;;;24.17;;
75038;SDS011;63609;49.992;14.512;2024-03-06T05:38:18;54.13;;;23.05;;
75038;SDS011;63609;49.992;14.512;2024-03-06T05:41:03;54.05;;;25.23;;
75038;SDS011;63609;49.992;14.512;2024-03-06T05:43:47;56.60;;;24.95;;
75038;SDS011;63609;49.992;14.512;2024-03-06T05:46:32;53.80;;;23.88;;
75038;SDS011;63609;49.992;14.512;2024-03-06T05:49:16;54.58;;;25.00;;
75038;SDS011;63609;49.992;14.512;2024-03-06T05:52:01;51.08;;;23.27;;
75038;SDS011;63609;49.992;14.512;2024-03-06T05:54:46;52.00;;;23.80;;
75038;SDS011;63609;49.992;14.512;2024-03-06T05:57:31;54.67;;;25.33;;
75038;SDS011;63609;49.992;14.512;2024-03-06T06:00:16;52.85;;;24.65;;
75038;SDS011;63609;49.992;14.512;2024-03-06T06:02:46;58.53;;;25.40;;
75038;SDS011;63609;49.992;14.512;2024-03-06T06:05:13;58.53;;;26.15;;
75038;SDS011;63609;49.992;14.512;2024-03-06T06:07:50;53.85;;;24.58;;
75038;SDS011;63609;49.992;14.512;2024-03-06T06:10:17;49.70;;;24.60;;
75038;SDS011;63609;49.992;14.512;2024-03-06T06:12:51;52.70;;;23.35;;
75038;SDS011;63609;49.992;14.512;2024-03-06T06:15:19;56.53;;;25.00;;
75038;SDS011;63609;49.992;14.512;2024-03-06T06:17:47;54.78;;;24.73;;
75038;SDS011;63609;49.992;14.512;2024-03-06T06:20:14;61.45;;;25.73;;
75038;SDS011;63609;49.992;14.512;2024-03-06T06:22:45;57.40;;;24.58;;
75038;SDS011;63609;49.992;14.512;2024-03-06T06:25:12;58.85;;;27.00;;
75038;SDS011;63609;49.992;14.512;2024-03-06T06:27:39;54.58;;;24.67;;
75038;SDS011;63609;49.992;14.512;2024-03-06T06:30:07;57.92;;;26.10;;
75038;SDS011;63609;49.992;14.512;2024-03-06T06:32:40;50.50;;;24.40;;
75038;SDS011;63609;49.992;14.512;2024-03-06T06:35:09;57.42;;;24.88;;
75038;SDS011;63609;49.992;14.512;2024-03-06T06:37:38;56.83;;;25.38;;
75038;SDS011;63609;49.992;14.512;2024-03-06T06:40:08;52.53;;;23.08;;
75038;SDS011;63609;49.992;14.512;2024-03-06T06:42:43;61.00;;;25.88;;
75038;SDS011;63609;49.992;14.512;2024-03-06T06:45:11;58.83;;;24.42;;
75038;SDS011;63609;49.992;14.512;2024-03-06T06:47:39;59.22;;;26.05;;
75038;SDS011;63609;49.992;14.512;2024-03-06T06:50:06;57.72;;;26.42;;
75038;SDS011;63609;49.992;14.512;2024-03-06T06:52:35;59.05;;;23.17;;
75038;SDS011;63609;49.992;14.512;2024-03-06T06:55:02;58.85;;;24.98;;
75038;SDS011;63609;49.992;14.512;2024-03-06T06:57:30;58.83;;;26.45;;
75038;SDS011;63609;49.992;14.512;2024-03-06T06:59:57;50.85;;;24.67;;
75038;SDS011;63609;49.992;14.512;2024-03-06T07:02:24;57.78;;;25.25;;
75038;SDS011;63609;49.992;14.512;2024-03-06T07:04:52;53.72;;;24.25;;
75038;SDS011;63609;49.992;14.512;2024-03-06T07:07:19;54.88;;;25.70;;
75038;SDS011;63609;49.992;14.512;2024-03-06T07:09:47;53.80;;;24.13;;
75038;SDS011;63609;49.992;14.512;2024-03-06T07:12:17;57.80;;;24.77;;
75038;SDS011;63609;49.992;14.512;2024-03-06T07:14:44;60.28;;;25.50;;
75038;SDS011;63609;49.992;14.512;2024-03-06T07:17:11;52.58;;;24.70;;
75038;SDS011;63609;49.992;14.512;2024-03-06T07:19:37;62.97;;;27.00;;
75038;SDS011;63609;49.992;14.512;2024-03-06T07:22:06;58.53;;;25.83;;
75038;SDS011;63609;49.992;14.512;2024-03-06T07:24:33;56.20;;;26.58;;
75038;SDS011;63609;49.992;14.512;2024-03-06T07:27:04;70.50;;;29.92;;
75038;SDS011;63609;49.992;14.512;2024-03-06T07:29:32;63.95;;;29.30;;
75038;SDS011;63609;49.992;14.512;2024-03-06T07:34:27;62.85;;;26.10;;
75038;SDS011;63609;49.992;14.512;2024-03-06T07:36:54;54.65;;;25.58;;
75038;SDS011;63609;49.992;14.512;2024-03-06T07:39:21;65.72;;;26.98;;
75038;SDS011;63609;49.992;14.512;2024-03-06T07:41:49;57.45;;;24.55;;
75038;SDS011;63609;49.992;14.512;2024-03-06T07:44:16;56.75;;;24.33;;
75038;SDS011;63609;49.992;14.512;2024-03-06T07:46:43;60.58;;;25.83;;
75038;SDS011;63609;49.992;14.512;2024-03-06T07:49:10;56.47;;;24.27;;
75038;SDS011;63609;49.992;14.512;2024-03-06T07:54:03;61.42;;;25.58;;
75038;SDS011;63609;49.992;14.512;2024-03-06T07:56:33;52.78;;;22.83;;
75038;SDS011;63609;49.992;14.512;2024-03-06T07:59:00;55.08;;;25.45;;
75038;SDS011;63609;49.992;14.512;2024-03-06T08:01:27;60.67;;;25.65;;
75038;SDS011;63609;49.992;14.512;2024-03-06T08:03:55;50.88;;;23.55;;
75038;SDS011;63609;49.992;14.512;2024-03-06T08:08:49;50.42;;;21.45;;
75038;SDS011;63609;49.992;14.512;2024-03-06T08:11:18;48.00;;;21.33;;
75038;SDS011;63609;49.992;14.512;2024-03-06T08:13:45;50.50;;;22.17;;
75038;SDS011;63609;49.992;14.512;2024-03-06T08:18:39;50.38;;;20.48;;
75038;SDS011;63609;49.992;14.512;2024-03-06T08:23:33;47.22;;;19.38;;
75038;SDS011;63609;49.992;14.512;2024-03-06T08:26:00;52.90;;;22.25;;
75038;SDS011;63609;49.992;14.512;2024-03-06T08:28:27;48.75;;;22.23;;
75038;SDS011;63609;49.992;14.512;2024-03-06T08:33:20;52.03;;;21.50;;
75038;SDS011;63609;49.992;14.512;2024-03-06T08:35:49;51.08;;;21.35;;
75038;SDS011;63609;49.992;14.512;2024-03-06T08:38:16;49.90;;;22.75;;
75038;SDS011;63609;49.992;14.512;2024-03-06T08:40:44;53.00;;;23.20;;
75038;SDS011;63609;49.992;14.512;2024-03-06T08:43:12;51.85;;;23.77;;
75038;SDS011;63609;49.992;14.512;2024-03-06T08:45:43;49.90;;;20.77;;
75038;SDS011;63609;49.992;14.512;2024-03-06T08:50:36;50.25;;;20.80;;
75038;SDS011;63609;49.992;14.512;2024-03-06T08:53:04;47.38;;;22.10;;
75038;SDS011;63609;49.992;14.512;2024-03-06T08:55:31;50.72;;;20.67;;
75038;SDS011;63609;49.992;14.512;2024-03-06T09:00:27;54.55;;;21.92;;
75038;SDS011;63609;49.992;14.512;2024-03-06T09:02:54;48.13;;;22.35;;
75038;SDS011;63609;49.992;14.512;2024-03-06T09:05:22;52.03;;;22.95;;
75038;SDS011;63609;49.992;14.512;2024-03-06T09:07:51;52.95;;;23.08;;
75038;SDS011;63609;49.992;14.512;2024-03-06T09:10:18;52.72;;;24.25;;
75038;SDS011;63609;49.992;14.512;2024-03-06T09:12:47;49.50;;;22.52;;
75038;SDS011;63609;49.992;14.512;2024-03-06T09:15:14;56.85;;;22.85;;
75038;SDS011;63609;49.992;14.512;2024-03-06T09:17:43;53.65;;;22.67;;
75038;SDS011;63609;49.992;14.512;2024-03-06T09:20:11;48.55;;;22.35;;
75038;SDS011;63609;49.992;14.512;2024-03-06T09:22:40;51.45;;;23.35;;
75038;SDS011;63609;49.992;14.512;2024-03-06T09:25:09;48.88;;;22.70;;
75038;SDS011;63609;49.992;14.512;2024-03-06T09:27:37;46.90;;;23.05;;
75038;SDS011;63609;49.992;14.512;2024-03-06T09:30:04;48.25;;;22.60;;
75038;SDS011;63609;49.992;14.512;2024-03-06T09:32:31;47.85;;;22.40;;
75038;SDS011;63609;49.992;14.512;2024-03-06T09:34:59;52.17;;;23.23;;
75038;SDS011;63609;49.992;14.512;2024-03-06T09:37:27;49.92;;;22.25;;
75038;SDS011;63609;49.992;14.512;2024-03-06T09:39:54;53.42;;;24.55;;
75038;SDS011;63609;49.992;14.512;2024-03-06T09:42:23;51.03;;;24.08;;
75038;SDS011;63609;49.992;14.512;2024-03-06T09:44:50;40.17;;;19.63;;
75038;SDS011;63609;49.992;14.512;2024-03-06T09:47:19;49.25;;;23.83;;
75038;SDS011;63609;49.992;14.512;2024-03-06T09:49:53;52.03;;;23.63;;
75038;SDS011;63609;49.992;14.512;2024-03-06T09:52:21;48.30;;;22.63;;
75038;SDS011;63609;49.992;14.512;2024-03-06T09:54:53;47.70;;;23.15;;
75038;SDS011;63609;49.992;14.512;2024-03-06T09:57:21;50.17;;;24.30;;
75038;SDS011;63609;49.992;14.512;2024-03-06T09:59:48;46.30;;;23.10;;
75038;SDS011;63609;49.992;14.512;2024-03-06T10:02:18;44.28;;;21.67;;
75038;SDS011;63609;49.992;14.512;2024-03-06T10:04:57;40.35;;;21.33;;
75038;SDS011;63609;49.992;14.512;2024-03-06T10:07:24;46.70;;;21.45;;
75038;SDS011;63609;49.992;14.512;2024-03-06T10:09:53;40.90;;;21.63;;
75038;SDS011;63609;49.992;14.512;2024-03-06T10:12:21;44.97;;;22.02;;
75038;SDS011;63609;49.992;14.512;2024-03-06T10:14:51;44.03;;;21.27;;
75038;SDS011;63609;49.992;14.512;2024-03-06T10:17:19;41.78;;;20.35;;
